»·PEaware :: PHSQV KBDN-CYXE

PHSQV :: KBDN-CYXE

FLIGHT INFORMATION

Flight Status: Arrived
Operator: Unknown
More flights by this operator :: More flights under this callsign
Pilot: Gabor H. (24209)
Aircraft: Unknown
(EPIC)
More flights by this aircraft type
Origin: KBDN Bend Mun
United States
Destination: CYXE Saskatoon/Diefenbaker Intl
Canada
More flights between these airports :: More routes between these airports
Route: LTJ J143 GEG GUDOG IMOTA MAVOB MAVOB4
File this flight plan on PilotEdge
Remarks: Epic E1000 Factory to Europe Ferry Flight Leg 1
Altitude:
(Current/Filed)
33,000ft
Speed:
(Current/Filed)
325kts
Departed: 15-Apr-20 05:06 AM
Arrived: 15-Apr-20 07:53 AM
Distance/Time
Traveled:
754nm/2:47
Distance/Time
To Go:
Arrived

Flight Plot

Page will automatically refresh every two minutes.


Map Options




Map Legend


Flown Route
Filed Route
Departure Airport
Arrival Airport
Navaid (VOR, NDB)
Fix

Horizontal Profiles

Position Reports

Time Latitude Longitude Heading Altitude Ground
Speed
15-Apr-20 04:59 44.094118 -121.196446 359 3436ft 0kts
15-Apr-20 05:00 44.094118 -121.196446 359 3436ft 0kts
15-Apr-20 05:01 44.094120 -121.196446 0 3436ft 0kts
15-Apr-20 05:02 44.094121 -121.199014 207 3425ft 7kts
15-Apr-20 05:03 44.089558 -121.199088 178 3440ft 18kts
15-Apr-20 05:04 44.087530 -121.199219 227 3457ft 5kts
15-Apr-20 05:05 44.094439 -121.200032 358 3550ft 114kts
15-Apr-20 05:06 44.130066 -121.206864 342 6343ft 157kts
15-Apr-20 05:07 44.179846 -121.232517 331 8831ft 200kts
15-Apr-20 05:08 44.234104 -121.239847 358 11859ft 206kts
15-Apr-20 05:09 44.291768 -121.234433 357 14510ft 215kts
15-Apr-20 05:10 44.352574 -121.228845 357 16982ft 225kts
15-Apr-20 05:11 44.415753 -121.223035 357 19245ft 234kts
15-Apr-20 05:12 44.481414 -121.216968 357 21066ft 240kts
15-Apr-20 05:13 44.549154 -121.210706 357 22093ft 246kts
15-Apr-20 05:14 44.617144 -121.204416 356 23146ft 247kts
15-Apr-20 05:15 44.686285 -121.198002 356 23987ft 251kts
15-Apr-20 05:16 44.756227 -121.191498 356 24696ft 255kts
15-Apr-20 05:17 44.826316 -121.184956 356 25575ft 249kts
15-Apr-20 05:18 44.894913 -121.178553 356 26476ft 244kts
15-Apr-20 05:19 44.962901 -121.172196 356 27128ft 247kts
15-Apr-20 05:20 45.031037 -121.165785 355 27832ft 244kts
15-Apr-20 05:21 45.098121 -121.159472 355 28438ft 240kts
15-Apr-20 05:22 45.164532 -121.153226 354 28924ft 240kts
15-Apr-20 05:23 45.230977 -121.146945 354 29301ft 242kts
15-Apr-20 05:24 45.296187 -121.140738 353 30115ft 227kts
15-Apr-20 05:25 45.359703 -121.134737 353 30541ft 230kts
15-Apr-20 05:26 45.423223 -121.128678 352 31446ft 225kts
15-Apr-20 05:27 45.485622 -121.122731 352 32354ft 223kts
15-Apr-20 05:28 45.547693 -121.116819 351 33083ft 226kts
15-Apr-20 05:29 45.611927 -121.110680 352 33228ft 238kts
15-Apr-20 05:30 45.679057 -121.104222 352 33226ft 245kts
15-Apr-20 05:31 45.740865 -121.051965 34 33225ft 300kts
15-Apr-20 05:32 45.793886 -120.958831 34 33225ft 302kts
15-Apr-20 05:33 45.846590 -120.865280 34 33224ft 301kts
15-Apr-20 05:34 45.898943 -120.771988 34 33223ft 301kts
15-Apr-20 05:35 45.951148 -120.678645 34 33207ft 301kts
15-Apr-20 05:36 46.003567 -120.584623 34 33177ft 302kts
15-Apr-20 05:37 46.055887 -120.490448 34 33161ft 301kts
15-Apr-20 05:38 46.108151 -120.396054 34 33174ft 301kts
15-Apr-20 05:39 46.160443 -120.301305 35 33166ft 304kts
15-Apr-20 05:40 46.213024 -120.205695 35 33167ft 304kts
15-Apr-20 05:41 46.265014 -120.110835 35 33167ft 304kts
15-Apr-20 05:42 46.317385 -120.014951 35 33166ft 304kts
15-Apr-20 05:43 46.369792 -119.918678 35 33163ft 304kts
15-Apr-20 05:44 46.422013 -119.822403 35 33155ft 305kts
15-Apr-20 05:45 46.474362 -119.725561 35 33150ft 305kts
15-Apr-20 05:46 46.526630 -119.628535 35 33149ft 305kts
15-Apr-20 05:47 46.578750 -119.531436 35 33150ft 305kts
15-Apr-20 05:48 46.630886 -119.433974 35 33151ft 305kts
15-Apr-20 05:49 46.681935 -119.338214 35 33141ft 306kts
15-Apr-20 05:50 46.733733 -119.240704 35 33138ft 304kts
15-Apr-20 05:51 46.785347 -119.143200 35 33127ft 304kts
15-Apr-20 05:52 46.836811 -119.045631 35 33119ft 303kts
15-Apr-20 05:53 46.888249 -118.947765 35 33112ft 303kts
15-Apr-20 05:54 46.939341 -118.850244 36 33113ft 301kts
15-Apr-20 05:55 46.989933 -118.753322 36 33113ft 298kts
15-Apr-20 05:56 47.039898 -118.657264 38 33112ft 295kts
15-Apr-20 05:57 47.089366 -118.561783 37 33112ft 293kts
15-Apr-20 05:58 47.138034 -118.467583 38 33114ft 295kts
15-Apr-20 05:59 47.187583 -118.371311 38 33096ft 297kts
15-Apr-20 06:00 47.236134 -118.276660 38 33075ft 297kts
15-Apr-20 06:01 47.285703 -118.179699 38 33074ft 296kts
15-Apr-20 06:03 47.335150 -118.082631 38 33075ft 296kts
15-Apr-20 06:04 47.384429 -117.985543 38 33074ft 296kts
15-Apr-20 06:05 47.433532 -117.888468 38 33085ft 295kts
15-Apr-20 06:06 47.482483 -117.791346 38 33093ft 295kts
15-Apr-20 06:07 47.531468 -117.693816 38 33092ft 295kts
15-Apr-20 06:08 47.581822 -117.598722 33 33093ft 289kts
15-Apr-20 06:09 47.634853 -117.509431 33 33095ft 289kts
15-Apr-20 06:10 47.687832 -117.420022 33 33098ft 289kts
15-Apr-20 06:11 47.740809 -117.330323 34 33094ft 289kts
15-Apr-20 06:12 47.793557 -117.240715 34 33093ft 288kts
15-Apr-20 06:13 47.846274 -117.150856 34 33093ft 288kts
15-Apr-20 06:14 47.898723 -117.061182 35 33093ft 287kts
15-Apr-20 06:15 47.951199 -116.971128 36 33093ft 288kts
15-Apr-20 06:16 48.003659 -116.880800 37 33094ft 289kts
15-Apr-20 06:17 48.056134 -116.790113 37 33105ft 289kts
15-Apr-20 06:18 48.108020 -116.700153 37 33128ft 289kts
15-Apr-20 06:19 48.160735 -116.608469 37 33142ft 292kts
15-Apr-20 06:20 48.213632 -116.516131 37 33144ft 293kts
15-Apr-20 06:21 48.266609 -116.423334 37 33143ft 294kts
15-Apr-20 06:22 48.319252 -116.330801 38 33137ft 294kts
15-Apr-20 06:22 48.363491 -116.252799 38 33137ft 294kts
15-Apr-20 06:24 48.425085 -116.143803 38 33137ft 293kts
15-Apr-20 06:25 48.477808 -116.050156 38 33137ft 293kts
15-Apr-20 06:25 48.521730 -115.971894 38 33137ft 293kts
15-Apr-20 06:27 48.583045 -115.862238 38 33137ft 293kts
15-Apr-20 06:27 48.626619 -115.784039 38 33136ft 293kts
15-Apr-20 06:29 48.687765 -115.673913 38 33147ft 293kts
15-Apr-20 06:29 48.731303 -115.595224 38 33166ft 292kts
15-Apr-20 06:30 48.783436 -115.500686 38 33179ft 293kts
15-Apr-20 06:31 48.835449 -115.406037 38 33181ft 293kts
15-Apr-20 06:32 48.886788 -115.312285 39 33175ft 293kts
15-Apr-20 06:33 48.938671 -115.217194 38 33175ft 292kts
15-Apr-20 06:34 48.990548 -115.121804 39 33161ft 293kts
15-Apr-20 06:35 49.042356 -115.026160 40 33153ft 293kts
15-Apr-20 06:36 49.094051 -114.930377 40 33152ft 293kts
15-Apr-20 06:37 49.145946 -114.833879 41 33102ft 295kts
15-Apr-20 06:38 49.197807 -114.737090 41 33028ft 296kts
15-Apr-20 06:39 49.249761 -114.639773 41 33004ft 295kts
15-Apr-20 06:40 49.301583 -114.542352 41 33003ft 294kts
15-Apr-20 06:41 49.353066 -114.445211 41 33003ft 294kts
15-Apr-20 06:42 49.404440 -114.347919 41 33003ft 294kts
15-Apr-20 06:43 49.455776 -114.250338 41 32999ft 293kts
15-Apr-20 06:44 49.507018 -114.152576 41 32999ft 293kts
15-Apr-20 06:45 49.557959 -114.055027 41 32999ft 293kts
15-Apr-20 06:46 49.608755 -113.957398 41 32998ft 293kts
15-Apr-20 06:47 49.659586 -113.859336 41 32998ft 293kts
15-Apr-20 06:48 49.710418 -113.760909 41 32998ft 293kts
15-Apr-20 06:49 49.760853 -113.662884 41 32997ft 293kts
15-Apr-20 06:50 49.811474 -113.564129 41 32997ft 292kts
15-Apr-20 06:51 49.861861 -113.465455 41 33040ft 291kts
15-Apr-20 06:52 49.911699 -113.367501 41 33144ft 289kts
15-Apr-20 06:53 49.961176 -113.269899 42 33243ft 287kts
15-Apr-20 06:54 50.010701 -113.171840 42 33249ft 289kts
15-Apr-20 06:55 50.060331 -113.073193 42 33249ft 290kts
15-Apr-20 06:56 50.110234 -112.973643 42 33259ft 291kts
15-Apr-20 06:57 50.160259 -112.873463 43 33260ft 295kts
15-Apr-20 06:58 50.210808 -112.771833 43 33260ft 298kts
15-Apr-20 06:59 50.261657 -112.669198 43 33260ft 300kts
15-Apr-20 07:00 50.312762 -112.565650 43 33259ft 301kts
15-Apr-20 07:01 50.363717 -112.461994 43 33259ft 301kts
15-Apr-20 07:02 50.414836 -112.357595 43 33259ft 302kts
15-Apr-20 07:03 50.465725 -112.253247 44 33255ft 302kts
15-Apr-20 07:04 50.516620 -112.148473 44 33255ft 301kts
15-Apr-20 07:05 50.567175 -112.043983 44 33254ft 301kts
15-Apr-20 07:06 50.617796 -111.938937 44 33250ft 301kts
15-Apr-20 07:07 50.668315 -111.833679 44 33246ft 301kts
15-Apr-20 07:08 50.718627 -111.728425 44 33245ft 301kts
15-Apr-20 07:09 50.768857 -111.622921 44 33245ft 301kts
15-Apr-20 07:10 50.818989 -111.517197 44 33245ft 301kts
15-Apr-20 07:11 50.869046 -111.411203 44 33245ft 301kts
15-Apr-20 07:12 50.919097 -111.304801 45 33241ft 300kts
15-Apr-20 07:13 50.968636 -111.199048 46 33242ft 298kts
15-Apr-20 07:14 51.017922 -111.093414 46 33241ft 296kts
15-Apr-20 07:15 51.066614 -110.988611 47 33241ft 295kts
15-Apr-20 07:16 51.115037 -110.883977 48 33249ft 296kts
15-Apr-20 07:17 51.164074 -110.777569 48 33250ft 298kts
15-Apr-20 07:18 51.212998 -110.670977 48 33249ft 299kts
15-Apr-20 07:19 51.262072 -110.563633 48 33246ft 300kts
15-Apr-20 07:20 51.311027 -110.456093 48 33232ft 300kts
15-Apr-20 07:21 51.359838 -110.348430 49 33213ft 300kts
15-Apr-20 07:22 51.408964 -110.239612 49 33210ft 300kts
15-Apr-20 07:23 51.457620 -110.131387 49 33210ft 300kts
15-Apr-20 07:24 51.506267 -110.022733 49 33210ft 300kts
15-Apr-20 07:25 51.537986 -109.897071 65 33210ft 308kts
15-Apr-20 07:26 51.565355 -109.766118 65 33115ft 311kts
15-Apr-20 07:27 51.593550 -109.630176 66 32107ft 336kts
15-Apr-20 07:28 51.623753 -109.483401 66 30585ft 354kts
15-Apr-20 07:29 51.654845 -109.331191 67 28998ft 361kts
15-Apr-20 07:30 51.686184 -109.176605 67 27388ft 364kts
15-Apr-20 07:31 51.717419 -109.021303 67 25776ft 365kts
15-Apr-20 07:32 51.748356 -108.866233 67 24168ft 364kts
15-Apr-20 07:33 51.779163 -108.710593 67 22558ft 364kts
15-Apr-20 07:34 51.809455 -108.556220 67 20958ft 352kts
15-Apr-20 07:35 51.838351 -108.407941 67 19429ft 342kts
15-Apr-20 07:36 51.866357 -108.263099 68 17936ft 338kts
15-Apr-20 07:37 51.893777 -108.120152 68 16462ft 326kts
15-Apr-20 07:38 51.920197 -107.981488 68 15037ft 320kts
15-Apr-20 07:39 51.946169 -107.844508 68 13631ft 317kts
15-Apr-20 07:40 51.971488 -107.709877 67 12245ft 299kts
15-Apr-20 07:41 51.994917 -107.584653 67 10965ft 286kts
15-Apr-20 07:42 52.018714 -107.461964 54 9701ft 281kts
15-Apr-20 07:43 52.059871 -107.360193 51 8510ft 254kts
15-Apr-20 07:44 52.097706 -107.266001 52 7414ft 246kts
15-Apr-20 07:45 52.135382 -107.171766 53 6333ft 249kts
15-Apr-20 07:46 52.171754 -107.080373 53 5991ft 214kts
15-Apr-20 07:47 52.201676 -106.999743 56 4026ft 198kts
15-Apr-20 07:48 52.203508 -106.927907 100 3999ft 159kts
15-Apr-20 07:49 52.194218 -106.850851 99 3333ft 167kts
15-Apr-20 07:50 52.186011 -106.781378 99 2447ft 140kts
15-Apr-20 07:51 52.179933 -106.730197 98 1830ft 93kts
15-Apr-20 07:52 52.176213 -106.699037 123 1641ft 22kts
15-Apr-20 07:53 52.172714 -106.696164 106 1641ft 15kts
15-Apr-20 07:54 52.171963 -106.690342 98 1641ft 11kts
15-Apr-20 07:55 52.170972 -106.683113 151 1637ft 13kts
15-Apr-20 07:56 52.170249 -106.683194 275 1637ft 0kts
15-Apr-20 07:57 52.170249 -106.683194 275 1637ft 0kts
15-Apr-20 07:58 52.170249 -106.683194 275 1637ft 0kts
15-Apr-20 07:59 52.170249 -106.683194 275 1637ft 0kts
15-Apr-20 08:00 52.170249 -106.683194 275 1637ft 0kts
15-Apr-20 08:01 52.170249 -106.683194 275 1637ft 0kts
15-Apr-20 08:02 52.170249 -106.683194 275 1637ft 0kts
15-Apr-20 08:03 52.170249 -106.683194 275 1637ft 0kts
15-Apr-20 08:04 52.170249 -106.683194 275 1637ft 0kts
15-Apr-20 08:05 52.170249 -106.683194 275 1637ft 0kts
15-Apr-20 08:06 52.170249 -106.683194 275 1637ft 0kts

Navigation Log

Ident Type
Flight plan parsing failed, navigation log unavailable